Time;durP1;ratioP1;P1;durP2;ratioP2;P2;SDS_P1;SDS_P2;PMS_P1;PMS_P2;Temp;Humidity;BMP_temperature;BMP_pressure;BME280_temperature;BME280_humidity;BME280_pressure;Samples;Min_cycle;Max_cycle;Signal;HPM_P1;HPM_P2
2021/01/19 00:02:17;;;;;;;4.47;1.63;;;;;;;;;;10369179;28;20214;-71
2021/01/19 00:07:19;;;;;;;5.30;2.00;;;;;;;;;;10369106;28;20743;-72
2021/01/19 00:12:21;;;;;;;3.50;1.33;;;;;;;;;;10349388;28;20229;-71
2021/01/19 00:17:22;;;;;;;4.90;2.13;;;;;;;;;;10368761;28;20733;-71
2021/01/19 00:22:25;;;;;;;4.67;1.67;;;;;;;;;;10348769;28;20599;-71
2021/01/19 00:27:26;;;;;;;1.57;1.07;;;;;;;;;;10365558;28;20281;-70
2021/01/19 00:32:28;;;;;;;2.83;1.57;;;;;;;;;;10347646;28;20206;-71
2021/01/19 00:37:30;;;;;;;4.33;1.60;;;;;;;;;;10361661;28;20298;-70
2021/01/19 00:42:32;;;;;;;4.70;1.80;;;;;;;;;;10363958;28;20199;-69
2021/01/19 00:47:33;;;;;;;5.93;2.33;;;;;;;;;;10358274;28;20678;-70
2021/01/19 00:52:36;;;;;;;7.00;2.87;;;;;;;;;;10361126;28;20302;-71
2021/01/19 00:57:38;;;;;;;5.20;2.17;;;;;;;;;;10344483;28;20278;-71
2021/01/19 01:02:39;;;;;;;6.73;2.67;;;;;;;;;;10350248;28;20230;-71
2021/01/19 01:07:42;;;;;;;7.50;2.80;;;;;;;;;;10354792;28;20230;-71
2021/01/19 01:12:44;;;;;;;5.63;2.73;;;;;;;;;;10360006;28;20214;-71
2021/01/19 01:17:46;;;;;;;6.90;2.93;;;;;;;;;;10359872;28;20202;-70
2021/01/19 01:22:48;;;;;;;8.07;3.30;;;;;;;;;;10363127;28;20217;-70
2021/01/19 01:27:50;;;;;;;4.33;2.07;;;;;;;;;;10363065;28;20235;-71
2021/01/19 01:32:52;;;;;;;7.83;2.80;;;;;;;;;;10362307;28;20281;-72
2021/01/19 01:37:54;;;;;;;8.27;3.40;;;;;;;;;;10363892;28;20840;-70
2021/01/19 01:42:57;;;;;;;7.57;3.53;;;;;;;;;;10352958;28;20225;-71
2021/01/19 01:47:59;;;;;;;7.67;2.63;;;;;;;;;;10355333;28;20265;-71
2021/01/19 01:53:04;;;;;;;5.63;2.03;;;;;;;;;;10363198;28;20305;-69
2021/01/19 01:58:05;;;;;;;8.67;3.13;;;;;;;;;;10349112;28;20243;-71
2021/01/19 02:03:07;;;;;;;8.30;3.17;;;;;;;;;;10363293;28;20198;-68
2021/01/19 02:08:14;;;;;;;8.53;3.13;;;;;;;;;;10344695;28;20219;-70
2021/01/19 02:13:18;;;;;;;7.00;2.93;;;;;;;;;;10360178;28;20194;-68
2021/01/19 02:18:28;;;;;;;7.77;3.13;;;;;;;;;;10338148;28;20225;-70
2021/01/19 02:23:43;;;;;;;8.43;3.40;;;;;;;;;;10362182;28;20289;-71
2021/01/19 02:28:49;;;;;;;4.53;1.70;;;;;;;;;;10370192;28;20249;-71
2021/01/19 02:33:55;;;;;;;2.83;1.70;;;;;;;;;;10372201;28;20198;-71
2021/01/19 02:38:57;;;;;;;4.00;1.63;;;;;;;;;;10369341;28;20226;-70
2021/01/19 02:44:04;;;;;;;3.47;0.73;;;;;;;;;;10367518;28;20229;-70
2021/01/19 02:49:07;;;;;;;5.33;2.30;;;;;;;;;;10360771;28;20210;-70
2021/01/19 02:54:09;;;;;;;4.90;1.87;;;;;;;;;;10367718;28;20234;-70
2021/01/19 02:59:14;;;;;;;8.67;2.97;;;;;;;;;;10363248;28;20248;-70
2021/01/19 03:04:18;;;;;;;7.57;3.10;;;;;;;;;;10356005;28;20616;-70
2021/01/19 03:09:21;;;;;;;8.40;3.30;;;;;;;;;;10368383;28;20233;-72
2021/01/19 03:14:23;;;;;;;7.30;3.13;;;;;;;;;;10365424;28;20222;-71
2021/01/19 03:19:26;;;;;;;7.57;2.73;;;;;;;;;;10369588;28;20242;-71
2021/01/19 03:24:28;;;;;;;5.70;2.37;;;;;;;;;;10349246;28;20230;-70
2021/01/19 03:29:29;;;;;;;7.70;2.83;;;;;;;;;;10381604;28;20214;-71
2021/01/19 03:34:33;;;;;;;7.03;2.93;;;;;;;;;;10371356;28;20234;-71
2021/01/19 03:39:34;;;;;;;8.97;3.27;;;;;;;;;;10363311;28;20674;-71
2021/01/19 03:44:36;;;;;;;4.37;2.17;;;;;;;;;;10364700;28;20292;-71
2021/01/19 03:49:38;;;;;;;3.13;1.00;;;;;;;;;;10359434;28;20210;-71
2021/01/19 03:54:40;;;;;;;9.73;3.57;;;;;;;;;;10360713;28;20200;-71
2021/01/19 03:59:41;;;;;;;7.47;2.70;;;;;;;;;;10345713;28;20258;-70
2021/01/19 04:04:44;;;;;;;3.27;1.63;;;;;;;;;;10356057;28;20351;-71
2021/01/19 04:09:45;;;;;;;6.90;3.10;;;;;;;;;;10351459;28;20241;-71
2021/01/19 04:14:47;;;;;;;9.37;3.67;;;;;;;;;;10360135;28;20269;-71
2021/01/19 04:19:49;;;;;;;8.60;3.37;;;;;;;;;;10368005;28;20249;-71
2021/01/19 04:24:51;;;;;;;7.90;3.10;;;;;;;;;;10366443;28;20556;-71
2021/01/19 04:29:53;;;;;;;4.97;2.30;;;;;;;;;;10347645;28;20663;-71
2021/01/19 04:34:55;;;;;;;6.43;2.83;;;;;;;;;;10362485;28;20237;-71
2021/01/19 04:39:57;;;;;;;4.20;2.10;;;;;;;;;;10364213;28;20248;-71
2021/01/19 04:44:59;;;;;;;7.67;3.23;;;;;;;;;;10367636;28;20256;-71
2021/01/19 04:50:04;;;;;;;7.73;3.17;;;;;;;;;;10348719;28;20210;-72
2021/01/19 04:55:07;;;;;;;7.00;2.87;;;;;;;;;;10364722;28;20319;-71
2021/01/19 05:00:09;;;;;;;5.80;1.77;;;;;;;;;;10362446;28;20210;-71
2021/01/19 05:05:20;;;;;;;5.43;1.97;;;;;;;;;;10363016;28;20277;-69
2021/01/19 05:16:03;;;;;;;7.50;2.97;;;;;;;;;;10360320;28;20689;-70
2021/01/19 05:21:06;;;;;;;7.97;2.97;;;;;;;;;;10363181;28;20583;-68
2021/01/19 05:26:09;;;;;;;5.70;2.40;;;;;;;;;;10363496;28;20198;-68
2021/01/19 05:31:21;;;;;;;6.40;2.30;;;;;;;;;;10362235;28;20597;-70
2021/01/19 05:36:24;;;;;;;6.07;2.40;;;;;;;;;;10363358;28;20268;-70
2021/01/19 05:41:26;;;;;;;4.90;2.00;;;;;;;;;;10357694;28;20650;-70
2021/01/19 05:46:30;;;;;;;5.37;1.90;;;;;;;;;;10350691;28;20212;-71
2021/01/19 05:51:32;;;;;;;2.03;0.93;;;;;;;;;;10358119;28;20229;-70
2021/01/19 05:56:36;;;;;;;4.23;1.87;;;;;;;;;;10363013;28;20266;-70
2021/01/19 06:01:38;;;;;;;2.33;0.93;;;;;;;;;;10366734;28;20216;-70
2021/01/19 06:06:43;;;;;;;2.33;1.20;;;;;;;;;;10369823;28;20285;-71
2021/01/19 06:11:50;;;;;;;1.67;0.50;;;;;;;;;;10371047;28;20224;-69
2021/01/19 06:16:52;;;;;;;4.73;1.93;;;;;;;;;;10367456;28;20289;-70
2021/01/19 06:21:54;;;;;;;5.60;2.10;;;;;;;;;;10363511;28;20322;-71
2021/01/19 06:26:56;;;;;;;4.17;1.83;;;;;;;;;;10352258;28;20662;-71
2021/01/19 06:31:59;;;;;;;4.73;2.00;;;;;;;;;;10374304;28;20236;-70
2021/01/19 06:37:03;;;;;;;6.97;1.87;;;;;;;;;;10350488;28;20210;-70
2021/01/19 06:42:09;;;;;;;6.37;1.97;;;;;;;;;;10373096;28;20297;-71
2021/01/19 06:47:15;;;;;;;4.90;2.10;;;;;;;;;;10365057;28;20269;-71
2021/01/19 06:52:39;;;;;;;4.33;1.53;;;;;;;;;;10370115;28;20198;-71
2021/01/19 06:57:48;;;;;;;4.90;2.00;;;;;;;;;;10353741;28;20228;-71
2021/01/19 07:02:50;;;;;;;2.60;1.17;;;;;;;;;;10376702;28;20194;-72
2021/01/19 07:08:04;;;;;;;2.50;1.20;;;;;;;;;;10370148;28;20214;-72
2021/01/19 07:13:06;;;;;;;3.37;1.70;;;;;;;;;;10355018;28;20731;-71
2021/01/19 07:18:17;;;;;;;4.30;1.70;;;;;;;;;;10359712;28;20343;-71
2021/01/19 07:23:24;;;;;;;4.93;1.93;;;;;;;;;;10344748;28;20187;-70
2021/01/19 07:28:25;;;;;;;4.33;1.80;;;;;;;;;;10361765;28;20598;-72
2021/01/19 07:33:28;;;;;;;6.67;1.80;;;;;;;;;;10358245;28;20240;-71
2021/01/19 07:38:31;;;;;;;7.43;2.23;;;;;;;;;;10368041;28;20245;-72
2021/01/19 07:43:34;;;;;;;2.77;1.17;;;;;;;;;;10362256;28;20199;-71
2021/01/19 07:48:59;;;;;;;2.33;1.07;;;;;;;;;;10346394;28;20230;-72
2021/01/19 07:54:03;;;;;;;4.60;1.90;;;;;;;;;;10366705;28;20559;-71
2021/01/19 07:59:14;;;;;;;6.53;1.90;;;;;;;;;;10341496;28;20297;-71
2021/01/19 08:04:16;;;;;;;5.37;2.40;;;;;;;;;;10365055;28;20195;-71
2021/01/19 08:09:19;;;;;;;4.00;2.00;;;;;;;;;;10366997;28;20218;-70
2021/01/19 08:14:21;;;;;;;3.43;1.60;;;;;;;;;;10364122;28;20282;-69
2021/01/19 08:19:23;;;;;;;2.70;1.00;;;;;;;;;;10361988;28;20273;-69
2021/01/19 08:24:27;;;;;;;3.13;1.60;;;;;;;;;;10345077;28;20281;-70
2021/01/19 08:29:29;;;;;;;2.80;1.50;;;;;;;;;;10362216;28;20289;-69
2021/01/19 08:34:32;;;;;;;2.30;1.20;;;;;;;;;;10367473;28;20195;-69
2021/01/19 08:39:34;;;;;;;2.30;1.30;;;;;;;;;;10370582;28;20290;-69
2021/01/19 08:44:56;;;;;;;2.17;1.20;;;;;;;;;;10350486;28;20210;-70
2021/01/19 08:49:58;;;;;;;2.47;1.30;;;;;;;;;;10365830;28;20230;-69
2021/01/19 08:55:03;;;;;;;2.07;1.10;;;;;;;;;;10368777;28;20297;-69
2021/01/19 09:00:06;;;;;;;4.43;1.47;;;;;;;;;;10358050;28;20214;-69
2021/01/19 09:05:09;;;;;;;3.40;1.30;;;;;;;;;;10369605;28;20695;-69
2021/01/19 09:10:18;;;;;;;4.43;1.17;;;;;;;;;;10362653;28;20642;-70
2021/01/19 09:15:24;;;;;;;7.00;1.90;;;;;;;;;;10365368;28;20198;-70
2021/01/19 09:20:26;;;;;;;3.77;1.57;;;;;;;;;;10363200;28;20636;-71
2021/01/19 09:25:29;;;;;;;4.73;1.70;;;;;;;;;;10376025;28;20264;-71
2021/01/19 09:30:34;;;;;;;3.87;1.67;;;;;;;;;;10362540;28;20218;-69
2021/01/19 09:35:37;;;;;;;5.77;1.77;;;;;;;;;;10373735;28;20202;-70
2021/01/19 09:40:40;;;;;;;5.63;2.10;;;;;;;;;;10361891;28;20229;-70
2021/01/19 09:45:42;;;;;;;7.10;2.83;;;;;;;;;;10350040;28;20203;-71
2021/01/19 09:50:43;;;;;;;4.03;1.83;;;;;;;;;;10364983;28;20755;-71
2021/01/19 09:55:48;;;;;;;4.70;2.03;;;;;;;;;;10363145;28;20214;-71
2021/01/19 10:00:50;;;;;;;4.30;1.90;;;;;;;;;;10364925;28;20766;-70
2021/01/19 10:05:59;;;;;;;4.03;1.97;;;;;;;;;;10353911;28;20745;-70
2021/01/19 10:11:03;;;;;;;5.40;2.20;;;;;;;;;;10361751;28;20332;-70
2021/01/19 10:16:06;;;;;;;3.17;1.67;;;;;;;;;;10364007;28;20666;-70
2021/01/19 10:21:09;;;;;;;3.20;2.00;;;;;;;;;;10345345;28;20222;-72
2021/01/19 10:26:12;;;;;;;2.97;1.40;;;;;;;;;;10342401;28;20202;-71
2021/01/19 10:31:18;;;;;;;2.70;1.50;;;;;;;;;;10362757;28;20234;-70
2021/01/19 10:36:20;;;;;;;3.47;1.80;;;;;;;;;;10368517;28;20206;-72
2021/01/19 10:41:26;;;;;;;3.63;1.87;;;;;;;;;;10362414;28;20218;-70
2021/01/19 10:46:31;;;;;;;2.93;1.67;;;;;;;;;;10370179;28;20273;-70
2021/01/19 10:51:33;;;;;;;4.23;1.90;;;;;;;;;;10364030;28;20214;-71
2021/01/19 10:56:36;;;;;;;3.83;1.73;;;;;;;;;;10372984;28;20246;-70
2021/01/19 11:01:38;;;;;;;3.27;1.80;;;;;;;;;;10353544;28;20687;-68
2021/01/19 11:06:40;;;;;;;3.37;1.50;;;;;;;;;;10366799;28;20190;-70
2021/01/19 11:11:43;;;;;;;2.10;1.53;;;;;;;;;;10357455;28;21070;-71
2021/01/19 11:16:44;;;;;;;2.40;1.50;;;;;;;;;;10368530;28;20337;-68
2021/01/19 11:21:46;;;;;;;2.80;1.57;;;;;;;;;;10357987;28;20230;-70
2021/01/19 11:26:49;;;;;;;4.27;1.40;;;;;;;;;;10364513;28;20201;-69
2021/01/19 11:32:03;;;;;;;1.70;1.20;;;;;;;;;;10377004;28;20225;-69
2021/01/19 11:37:06;;;;;;;4.60;1.90;;;;;;;;;;10374202;28;20266;-69
2021/01/19 11:42:09;;;;;;;3.63;1.70;;;;;;;;;;10365429;28;20219;-69
2021/01/19 11:47:13;;;;;;;5.33;1.90;;;;;;;;;;10365389;28;20206;-70
2021/01/19 11:52:21;;;;;;;4.07;1.80;;;;;;;;;;10371510;28;20583;-70
2021/01/19 11:57:23;;;;;;;3.43;1.50;;;;;;;;;;10372453;28;20707;-70
2021/01/19 12:02:25;;;;;;;2.63;1.30;;;;;;;;;;10366500;28;20214;-69
2021/01/19 12:07:27;;;;;;;3.03;1.10;;;;;;;;;;10374726;28;20194;-69
2021/01/19 12:12:30;;;;;;;0.30;0.30;;;;;;;;;;10370438;28;20214;-69
2021/01/19 12:17:31;;;;;;;2.97;1.10;;;;;;;;;;10369006;28;20198;-70
2021/01/19 12:22:33;;;;;;;1.87;1.10;;;;;;;;;;10352539;28;20224;-68
2021/01/19 12:27:36;;;;;;;3.03;1.10;;;;;;;;;;10358501;28;20278;-70
2021/01/19 12:32:37;;;;;;;1.70;0.97;;;;;;;;;;10352703;28;20366;-69
2021/01/19 12:37:39;;;;;;;2.43;0.93;;;;;;;;;;10366249;28;20206;-70
2021/01/19 12:42:42;;;;;;;2.50;1.17;;;;;;;;;;10363549;28;20191;-69
2021/01/19 12:48:02;;;;;;;3.50;1.03;;;;;;;;;;10360358;28;20233;-70
2021/01/19 12:53:23;;;;;;;1.70;1.00;;;;;;;;;;10364735;28;20214;-70
2021/01/19 12:58:41;;;;;;;2.80;1.30;;;;;;;;;;10341175;28;20642;-71
2021/01/19 13:04:10;;;;;;;0.83;0.63;;;;;;;;;;10353026;28;20625;-71
2021/01/19 13:09:20;;;;;;;1.97;1.13;;;;;;;;;;10356736;28;20325;-69
2021/01/19 13:14:22;;;;;;;2.20;1.03;;;;;;;;;;10359219;28;20354;-70
2021/01/19 13:19:24;;;;;;;1.60;0.97;;;;;;;;;;10349734;28;20257;-71
2021/01/19 13:24:26;;;;;;;1.57;0.60;;;;;;;;;;10349095;28;20226;-70
2021/01/19 13:29:28;;;;;;;2.83;0.77;;;;;;;;;;10361942;28;20206;-70
2021/01/19 13:34:30;;;;;;;1.57;0.60;;;;;;;;;;10343112;28;20257;-71
2021/01/19 13:39:32;;;;;;;2.87;0.80;;;;;;;;;;10345638;28;20238;-70
2021/01/19 13:44:35;;;;;;;2.63;0.80;;;;;;;;;;10361584;28;20204;-70
2021/01/19 13:49:36;;;;;;;1.13;0.60;;;;;;;;;;10357478;28;20737;-70
2021/01/19 13:54:38;;;;;;;0.87;0.67;;;;;;;;;;10344192;28;20202;-73
2021/01/19 13:59:42;;;;;;;1.27;0.60;;;;;;;;;;10362770;28;20222;-71
2021/01/19 14:04:44;;;;;;;2.40;0.60;;;;;;;;;;10363619;28;20233;-70
2021/01/19 14:09:45;;;;;;;2.40;0.70;;;;;;;;;;10363551;28;20242;-70
2021/01/19 14:14:48;;;;;;;1.87;0.90;;;;;;;;;;10367561;28;20194;-70
2021/01/19 14:19:50;;;;;;;0.57;0.57;;;;;;;;;;10375820;28;20280;-70
2021/01/19 14:24:52;;;;;;;0.70;0.40;;;;;;;;;;10375929;28;20202;-70
2021/01/19 14:29:55;;;;;;;2.50;0.77;;;;;;;;;;10366965;28;20229;-70
2021/01/19 14:34:57;;;;;;;3.33;0.70;;;;;;;;;;10374758;28;20284;-69
2021/01/19 14:40:04;;;;;;;1.70;0.47;;;;;;;;;;10350767;28;20301;-71
2021/01/19 14:45:09;;;;;;;0.63;0.40;;;;;;;;;;10369825;28;20195;-70
2021/01/19 14:50:11;;;;;;;1.13;0.40;;;;;;;;;;10360208;28;20211;-69
2021/01/19 14:55:13;;;;;;;1.47;0.50;;;;;;;;;;10369686;28;20210;-71
2021/01/19 15:00:20;;;;;;;0.63;0.50;;;;;;;;;;10375442;28;20218;-69
2021/01/19 15:05:24;;;;;;;0.80;0.40;;;;;;;;;;10370640;28;20268;-71
2021/01/19 15:10:26;;;;;;;2.00;0.83;;;;;;;;;;10372038;28;20707;-70
2021/01/19 15:15:31;;;;;;;1.33;0.60;;;;;;;;;;10373388;28;20245;-70
2021/01/19 15:20:33;;;;;;;1.73;0.50;;;;;;;;;;10354869;28;20591;-70
2021/01/19 15:25:37;;;;;;;0.90;0.57;;;;;;;;;;10369625;28;20201;-70
2021/01/19 15:30:43;;;;;;;0.87;0.27;;;;;;;;;;10349126;28;20582;-71
2021/01/19 15:35:44;;;;;;;1.50;0.60;;;;;;;;;;10378776;28;20261;-69
2021/01/19 15:40:46;;;;;;;2.63;0.50;;;;;;;;;;10370733;28;20222;-70
2021/01/19 15:45:48;;;;;;;0.77;0.40;;;;;;;;;;10367936;28;20190;-69
2021/01/19 15:50:50;;;;;;;0.57;0.20;;;;;;;;;;10354646;28;20663;-70
2021/01/19 15:55:52;;;;;;;0.90;0.47;;;;;;;;;;10356423;28;20205;-70
2021/01/19 16:00:57;;;;;;;2.00;0.70;;;;;;;;;;10366617;28;20210;-69
2021/01/19 16:05:59;;;;;;;0.40;0.30;;;;;;;;;;10366166;28;20268;-69
2021/01/19 16:11:00;;;;;;;1.40;0.57;;;;;;;;;;10360973;28;20214;-69
2021/01/19 16:16:09;;;;;;;2.27;0.40;;;;;;;;;;10360285;28;20206;-70
2021/01/19 16:21:12;;;;;;;1.30;0.67;;;;;;;;;;10349099;28;20550;-71
2021/01/19 16:26:16;;;;;;;2.57;1.03;;;;;;;;;;10368056;28;20265;-71
2021/01/19 16:31:19;;;;;;;4.20;0.90;;;;;;;;;;10373418;28;20226;-70
2021/01/19 16:36:25;;;;;;;2.13;0.80;;;;;;;;;;10367409;28;20214;-69
2021/01/19 16:41:27;;;;;;;3.47;0.97;;;;;;;;;;10362767;28;20293;-70
2021/01/19 16:46:29;;;;;;;0.60;0.37;;;;;;;;;;10364932;28;20221;-69
2021/01/19 16:51:31;;;;;;;2.53;1.10;;;;;;;;;;10349466;28;20234;-71
2021/01/19 16:56:33;;;;;;;2.50;0.93;;;;;;;;;;10374362;28;20670;-71
2021/01/19 17:01:36;;;;;;;2.27;1.00;;;;;;;;;;10370119;28;20309;-71
2021/01/19 17:06:39;;;;;;;1.00;0.50;;;;;;;;;;10371552;28;20230;-71
2021/01/19 17:11:44;;;;;;;0.43;0.33;;;;;;;;;;10343069;28;20277;-69
2021/01/19 17:16:50;;;;;;;1.90;0.70;;;;;;;;;;10362797;28;20194;-69
2021/01/19 17:21:51;;;;;;;2.00;0.83;;;;;;;;;;10364404;28;20226;-70
2021/01/19 17:26:56;;;;;;;1.20;0.50;;;;;;;;;;10360954;28;20229;-70
2021/01/19 17:31:58;;;;;;;2.03;0.73;;;;;;;;;;10366131;28;20222;-70
2021/01/19 17:37:02;;;;;;;2.03;0.77;;;;;;;;;;10367198;28;20217;-70
2021/01/19 17:42:05;;;;;;;1.27;0.73;;;;;;;;;;10359187;28;20316;-70
2021/01/19 17:47:08;;;;;;;2.47;0.80;;;;;;;;;;10357164;28;20226;-71
2021/01/19 17:52:10;;;;;;;2.83;0.60;;;;;;;;;;10367782;28;20675;-70
2021/01/19 17:57:12;;;;;;;0.97;0.50;;;;;;;;;;10373018;28;20218;-69
2021/01/19 18:02:14;;;;;;;1.00;0.50;;;;;;;;;;10366753;28;20205;-71
2021/01/19 18:07:16;;;;;;;1.00;0.60;;;;;;;;;;10370392;28;20202;-70
2021/01/19 18:12:18;;;;;;;1.40;0.60;;;;;;;;;;10365012;28;20222;-71
2021/01/19 18:17:20;;;;;;;1.57;0.80;;;;;;;;;;10366669;28;20654;-70
2021/01/19 18:22:22;;;;;;;1.23;0.60;;;;;;;;;;10370124;28;20222;-71
2021/01/19 18:27:24;;;;;;;1.23;0.60;;;;;;;;;;10377048;28;20277;-70
2021/01/19 18:32:26;;;;;;;1.10;0.60;;;;;;;;;;10362618;28;20224;-69
2021/01/19 18:37:28;;;;;;;0.67;0.10;;;;;;;;;;10378382;28;20203;-68
2021/01/19 18:42:31;;;;;;;0.20;0.20;;;;;;;;;;10370529;28;20289;-71
2021/01/19 18:47:34;;;;;;;0.97;0.50;;;;;;;;;;10372196;28;20531;-71
2021/01/19 18:52:36;;;;;;;0.83;0.40;;;;;;;;;;10364663;28;20218;-71
2021/01/19 18:57:42;;;;;;;1.27;0.47;;;;;;;;;;10379573;28;20198;-71
2021/01/19 19:02:44;;;;;;;0.20;0.20;;;;;;;;;;10374036;28;20199;-71
2021/01/19 19:07:46;;;;;;;1.50;0.40;;;;;;;;;;10371064;28;20202;-70
2021/01/19 19:12:48;;;;;;;1.90;0.40;;;;;;;;;;10371820;28;20206;-70
2021/01/19 19:17:59;;;;;;;1.97;0.60;;;;;;;;;;10377530;28;20195;-71
2021/01/19 19:23:05;;;;;;;1.30;0.50;;;;;;;;;;10366850;28;20620;-71
2021/01/19 19:28:07;;;;;;;0.50;0.43;;;;;;;;;;10364205;28;20325;-70
2021/01/19 19:33:14;;;;;;;1.20;0.50;;;;;;;;;;10364950;28;20202;-71
2021/01/19 19:38:16;;;;;;;1.30;0.70;;;;;;;;;;10364949;28;20226;-71
2021/01/19 19:43:17;;;;;;;2.17;0.77;;;;;;;;;;10371574;28;20198;-70
2021/01/19 19:48:20;;;;;;;1.00;0.40;;;;;;;;;;10369181;28;20214;-70
2021/01/19 19:53:21;;;;;;;0.73;0.50;;;;;;;;;;10350840;28;20666;-70
2021/01/19 19:58:23;;;;;;;1.07;0.50;;;;;;;;;;10350154;28;20751;-70
2021/01/19 20:03:28;;;;;;;1.33;0.73;;;;;;;;;;10377188;28;20222;-72
2021/01/19 20:08:30;;;;;;;2.10;0.77;;;;;;;;;;10363107;28;20786;-70
2021/01/19 20:13:31;;;;;;;1.97;0.90;;;;;;;;;;10345084;28;20202;-69
2021/01/19 20:18:34;;;;;;;2.53;1.00;;;;;;;;;;10355287;28;20206;-70
2021/01/19 20:23:36;;;;;;;2.30;0.90;;;;;;;;;;10366992;28;20253;-70
2021/01/19 20:28:38;;;;;;;2.23;0.90;;;;;;;;;;10365446;28;20218;-71
2021/01/19 20:33:40;;;;;;;2.23;0.70;;;;;;;;;;10371128;28;20267;-71
2021/01/19 20:38:42;;;;;;;2.27;0.90;;;;;;;;;;10373648;28;20221;-71
2021/01/19 20:43:44;;;;;;;1.77;0.80;;;;;;;;;;10378216;28;20195;-71
2021/01/19 20:48:46;;;;;;;3.43;1.17;;;;;;;;;;10367640;28;20269;-71
2021/01/19 20:53:49;;;;;;;1.33;0.80;;;;;;;;;;10368145;28;20222;-71
2021/01/19 20:58:50;;;;;;;2.80;1.20;;;;;;;;;;10347772;28;20687;-69
2021/01/19 21:03:55;;;;;;;2.03;1.07;;;;;;;;;;10367388;28;20199;-71
2021/01/19 21:09:04;;;;;;;2.13;0.90;;;;;;;;;;10364517;28;20219;-71
2021/01/19 21:14:06;;;;;;;3.10;1.20;;;;;;;;;;10358380;28;20264;-71
2021/01/19 21:19:08;;;;;;;3.13;1.13;;;;;;;;;;10366990;28;20222;-70
2021/01/19 21:24:11;;;;;;;2.10;0.97;;;;;;;;;;10367438;28;20186;-69
2021/01/19 21:29:13;;;;;;;2.53;0.80;;;;;;;;;;10363613;28;20586;-70
2021/01/19 21:34:15;;;;;;;1.30;0.90;;;;;;;;;;10363863;28;20206;-71
2021/01/19 21:39:17;;;;;;;2.50;0.80;;;;;;;;;;10369416;28;20222;-71
2021/01/19 21:44:18;;;;;;;2.40;1.10;;;;;;;;;;10345311;28;20574;-70
2021/01/19 21:49:24;;;;;;;2.07;0.90;;;;;;;;;;10377615;28;20214;-70
2021/01/19 21:54:25;;;;;;;1.70;1.00;;;;;;;;;;10354708;28;20293;-69
2021/01/19 21:59:27;;;;;;;1.67;0.70;;;;;;;;;;10374557;28;20217;-71
2021/01/19 22:04:29;;;;;;;1.57;0.70;;;;;;;;;;10355371;28;20202;-70
2021/01/19 22:09:31;;;;;;;0.50;0.30;;;;;;;;;;10354636;28;20210;-69
2021/01/19 22:14:32;;;;;;;1.20;0.50;;;;;;;;;;10364452;28;20206;-72
2021/01/19 22:19:35;;;;;;;1.73;0.80;;;;;;;;;;10358751;28;20269;-69
2021/01/19 22:24:37;;;;;;;2.13;0.60;;;;;;;;;;10365927;28;20543;-69
2021/01/19 22:29:39;;;;;;;0.83;0.60;;;;;;;;;;10367520;28;20221;-69
2021/01/19 22:34:42;;;;;;;1.20;0.73;;;;;;;;;;10369554;28;20211;-68
2021/01/19 22:39:44;;;;;;;1.60;0.60;;;;;;;;;;10355631;28;20249;-70
2021/01/19 22:44:46;;;;;;;0.73;0.50;;;;;;;;;;10356655;28;20249;-68
2021/01/19 22:49:49;;;;;;;1.03;0.50;;;;;;;;;;10353213;28;20214;-71
2021/01/19 22:54:51;;;;;;;1.50;0.70;;;;;;;;;;10363724;28;20297;-71
2021/01/19 22:59:52;;;;;;;1.07;0.50;;;;;;;;;;10366865;28;20297;-71
2021/01/19 23:04:55;;;;;;;1.50;0.70;;;;;;;;;;10367758;28;20221;-70
2021/01/19 23:09:57;;;;;;;1.07;0.70;;;;;;;;;;10349461;28;20633;-71
2021/01/19 23:14:58;;;;;;;1.10;0.57;;;;;;;;;;10347383;28;20218;-70
2021/01/19 23:20:04;;;;;;;1.10;0.50;;;;;;;;;;10367133;28;20248;-70
2021/01/19 23:25:06;;;;;;;0.70;0.67;;;;;;;;;;10364992;28;20625;-70
2021/01/19 23:30:08;;;;;;;1.33;0.63;;;;;;;;;;10363809;28;20301;-70
2021/01/19 23:35:11;;;;;;;0.83;0.40;;;;;;;;;;10370157;28;20292;-69
2021/01/19 23:40:13;;;;;;;1.37;0.80;;;;;;;;;;10350871;28;20697;-70
2021/01/19 23:45:16;;;;;;;0.60;0.40;;;;;;;;;;10341494;28;20237;-69
2021/01/19 23:50:18;;;;;;;1.43;0.60;;;;;;;;;;10362215;28;20333;-70
2021/01/19 23:55:20;;;;;;;0.90;0.60;;;;;;;;;;10365171;28;20838;-71
